Time;durP1;ratioP1;P1;durP2;ratioP2;P2;SDS_P1;SDS_P2;PMS_P1;PMS_P2;Temp;Humidity;BMP_temperature;BMP_pressure;BME280_temperature;BME280_humidity;BME280_pressure;Samples;Min_cycle;Max_cycle;Signal;HPM_P1;HPM_P2
2021/01/04 00:01:33;;;;;;;9.75;3.92;;;;;;;4.71;77.03;101878.75;10232562;28;20057;-66
2021/01/04 00:06:57;;;;;;;5.28;2.05;;;;;;;5.42;84.82;101867.13;10227454;28;20049;-65
2021/01/04 00:12:08;;;;;;;7.47;3.10;;;;;;;4.85;77.81;101871.09;10230804;28;20045;-66
2021/01/04 00:17:32;;;;;;;8.65;2.80;;;;;;;5.20;84.15;101875.31;10224145;28;20049;-67
2021/01/04 00:22:47;;;;;;;8.18;3.20;;;;;;;5.31;82.80;101874.34;10232334;28;20104;-65
2021/01/04 00:27:51;;;;;;;9.57;2.78;;;;;;;5.04;82.77;101860.75;10217728;28;20061;-67
2021/01/04 00:32:48;;;;;;;8.32;2.40;;;;;;;5.32;83.14;101856.19;10235596;28;20064;-66
2021/01/04 00:38:01;;;;;;;7.90;2.83;;;;;;;5.17;83.05;101849.50;10230146;28;20088;-66
2021/01/04 00:42:58;;;;;;;5.63;1.80;;;;;;;5.35;84.74;101864.63;10226826;28;20081;-65
2021/01/04 00:48:29;;;;;;;6.20;2.22;;;;;;;5.46;81.33;101849.28;10216922;28;20049;-67
2021/01/04 00:53:36;;;;;;;6.90;2.55;;;;;;;5.45;81.39;101861.19;10148340;28;20576;-65
2021/01/04 00:58:51;;;;;;;7.53;2.33;;;;;;;5.13;75.72;101859.25;10237196;28;20083;-66
2021/01/04 01:04:36;;;;;;;4.35;1.48;;;;;;;5.56;82.97;101857.50;10228131;28;20122;-66
2021/01/04 01:09:36;;;;;;;8.38;2.00;;;;;;;5.10;76.05;101867.84;10113189;28;20122;-67
2021/01/04 01:14:40;;;;;;;4.63;1.75;;;;;;;5.53;84.65;101866.19;10215702;28;20069;-67
2021/01/04 01:19:48;;;;;;;;;;;;;;;5.54;84.43;101875.94;10204483;28;20049;-68
2021/01/04 01:24:45;;;;;;;6.43;2.20;;;;;;;5.55;83.97;101872.16;10219967;28;20385;-64
2021/01/04 01:30:38;;;;;;;9.38;1.77;;;;;;;5.47;82.46;101875.31;10222986;28;20631;-67
2021/01/04 01:36:11;;;;;;;5.15;1.85;;;;;;;5.82;84.58;101876.75;10002809;29;20162;-66
2021/01/04 01:41:35;;;;;;;3.95;1.45;;;;;;;5.59;83.66;101886.88;10211160;28;20108;-65
2021/01/04 01:46:40;;;;;;;6.63;1.93;;;;;;;5.43;82.37;101888.59;10234726;28;20497;-67
2021/01/04 01:52:10;;;;;;;5.78;2.20;;;;;;;5.53;82.14;101895.22;10235526;28;20053;-66
2021/01/04 01:57:24;;;;;;;9.25;1.85;;;;;;;5.50;80.60;101891.13;10223449;28;20061;-66
2021/01/04 02:07:44;;;;;;;5.28;1.42;;;;;;;5.62;84.29;101910.78;10534838;23;20129;-67
2021/01/04 02:13:08;;;;;;;7.32;1.90;;;;;;;5.34;81.03;101900.97;10172565;28;20523;-67
2021/01/04 02:18:25;;;;;;;4.32;1.38;;;;;;;5.42;82.00;101899.69;10137200;28;20050;-66
2021/01/04 02:23:34;;;;;;;5.50;1.88;;;;;;;5.08;75.37;101888.97;10143186;28;20070;-67
2021/01/04 02:28:34;;;;;;;4.00;1.50;;;;;;;5.26;82.79;101899.50;10136796;28;20498;-66
2021/01/04 02:33:30;;;;;;;4.47;1.30;;;;;;;5.01;78.71;101904.59;10127151;28;20054;-66
2021/01/04 02:38:35;;;;;;;4.22;1.45;;;;;;;5.54;84.74;101897.66;10139075;28;20054;-67
2021/01/04 02:43:31;;;;;;;4.50;1.38;;;;;;;5.26;80.54;101899.50;10137061;28;20050;-66
2021/01/04 02:48:36;;;;;;;5.22;1.42;;;;;;;5.11;81.39;101898.53;10127647;28;20044;-66
2021/01/04 02:53:40;;;;;;;3.72;1.17;;;;;;;5.08;83.20;101897.09;10139427;28;20068;-67
2021/01/04 02:58:54;;;;;;;7.00;1.67;;;;;;;4.89;79.74;101896.59;10138622;28;20075;-66
2021/01/04 03:03:50;;;;;;;4.47;1.42;;;;;;;5.09;83.52;101896.06;10142756;28;20060;-65
2021/01/04 03:08:47;;;;;;;5.28;1.20;;;;;;;5.10;85.06;101888.72;10142547;28;20505;-66
2021/01/04 03:13:56;;;;;;;7.57;1.70;;;;;;;4.83;82.00;101895.72;10140461;28;20466;-65
2021/01/04 03:19:01;;;;;;;3.35;1.20;;;;;;;4.89;82.43;101901.19;10139100;28;20046;-67
2021/01/04 03:23:58;;;;;;;3.13;0.90;;;;;;;4.71;85.35;101895.00;10135075;28;20139;-67
2021/01/04 03:28:54;;;;;;;5.35;1.35;;;;;;;4.25;77.89;101894.31;10133900;28;20100;-66
2021/01/04 03:33:50;;;;;;;4.35;1.48;;;;;;;4.68;86.57;101881.94;10136153;28;20544;-66
2021/01/04 03:38:47;;;;;;;4.90;1.00;;;;;;;4.60;86.14;101882.41;10138756;28;20137;-67
2021/01/04 03:43:43;;;;;;;3.88;0.93;;;;;;;4.27;83.62;101886.78;10132513;28;20066;-65
2021/01/04 03:48:39;;;;;;;5.80;1.10;;;;;;;4.25;83.13;101885.34;10140994;28;20050;-64
2021/01/04 03:53:36;;;;;;;5.32;1.33;;;;;;;4.24;85.45;101895.38;10131787;28;20072;-68
2021/01/04 03:58:32;;;;;;;6.18;1.83;;;;;;;4.29;85.51;101892.75;10131879;28;20042;-67
2021/01/04 04:03:28;;;;;;;5.40;1.10;;;;;;;4.23;85.53;101893.75;10133372;28;20042;-68
2021/01/04 04:08:24;;;;;;;6.63;1.15;;;;;;;3.98;84.09;101897.66;10138333;28;20047;-66
2021/01/04 04:13:20;;;;;;;4.15;0.90;;;;;;;4.23;86.49;101893.75;10133827;28;20039;-66
2021/01/04 04:18:16;;;;;;;4.63;1.02;;;;;;;4.36;87.05;101893.44;10137971;28;20046;-66
2021/01/04 04:23:15;;;;;;;4.35;1.08;;;;;;;4.37;85.91;101895.06;10121959;28;20426;-66
2021/01/04 04:28:13;;;;;;;3.88;1.27;;;;;;;4.46;87.66;101884.63;10114037;28;20055;-65
2021/01/04 04:33:09;;;;;;;6.38;1.20;;;;;;;4.43;87.67;101894.06;10123579;28;20054;-65
2021/01/04 04:38:09;;;;;;;5.97;1.17;;;;;;;4.38;86.89;101896.69;10146553;28;20105;-65
2021/01/04 04:43:15;;;;;;;4.82;1.27;;;;;;;4.21;82.25;101890.47;10159254;28;20574;-66
2021/01/04 04:48:49;;;;;;;8.70;1.30;;;;;;;4.29;85.35;101898.16;10144559;28;20173;-66
2021/01/04 04:54:06;;;;;;;4.22;0.90;;;;;;;4.34;86.20;101905.53;10137025;28;20054;-66
2021/01/04 04:59:24;;;;;;;4.53;1.10;;;;;;;4.40;87.27;101905.38;10135903;28;20504;-65
2021/01/04 05:04:53;;;;;;;2.80;0.77;;;;;;;4.34;87.65;101900.97;10139237;28;20042;-65
2021/01/04 05:10:10;;;;;;;3.28;1.15;;;;;;;4.32;87.15;101903.09;10127968;28;20050;-65
2021/01/04 05:15:21;;;;;;;4.43;0.90;;;;;;;4.14;86.36;101906.06;10118145;28;20617;-67
2021/01/04 05:20:47;;;;;;;7.43;0.98;;;;;;;4.06;87.17;101906.44;10125707;28;20061;-67
2021/01/04 05:26:21;;;;;;;4.03;1.27;;;;;;;4.14;87.03;101906.06;10131221;28;20100;-66
2021/01/04 05:31:39;;;;;;;2.67;0.88;;;;;;;4.05;87.66;101912.94;10133979;28;20105;-67
2021/01/04 05:36:54;;;;;;;6.63;1.77;;;;;;;3.96;87.56;101905.19;10134776;28;20485;-66
2021/01/04 05:42:22;;;;;;;7.22;1.10;;;;;;;3.98;87.28;101911.19;10128039;28;20054;-65
2021/01/04 05:47:28;;;;;;;5.65;1.55;;;;;;;3.94;87.02;101920.84;10137812;28;20051;-66
2021/01/04 05:52:25;;;;;;;7.25;0.90;;;;;;;4.22;89.55;101919.16;10119974;28;20455;-66
2021/01/04 05:57:21;;;;;;;5.57;1.35;;;;;;;4.23;89.33;101918.13;10124167;28;20054;-66
2021/01/04 06:02:34;;;;;;;7.65;1.10;;;;;;;4.17;90.07;101927.19;10128483;28;20042;-66
2021/01/04 06:07:37;;;;;;;7.87;1.37;;;;;;;4.02;88.27;101924.25;10111346;28;20603;-66
2021/01/04 06:12:40;;;;;;;6.45;1.50;;;;;;;4.03;88.02;101932.09;10126248;28;20050;-65
2021/01/04 06:17:43;;;;;;;4.60;1.10;;;;;;;3.97;87.90;101920.38;10126434;28;20552;-66
2021/01/04 06:22:41;;;;;;;5.10;1.58;;;;;;;4.09;88.91;101922.22;10128937;28;20051;-65
2021/01/04 06:27:41;;;;;;;5.63;1.50;;;;;;;3.85;85.61;101925.03;10132368;28;20046;-65
2021/01/04 06:32:37;;;;;;;5.03;2.03;;;;;;;3.98;86.22;101930.13;10123436;28;20046;-65
2021/01/04 06:37:33;;;;;;;3.38;1.40;;;;;;;3.50;83.86;101928.69;10127522;28;20050;-66
2021/01/04 06:42:36;;;;;;;4.97;1.40;;;;;;;3.83;86.35;101931.75;10122090;28;20050;-65
2021/01/04 06:47:39;;;;;;;3.20;0.95;;;;;;;3.65;86.25;101935.50;10132484;28;20046;-65
2021/01/04 06:53:00;;;;;;;3.53;1.27;;;;;;;3.62;86.55;101941.34;10127302;28;20050;-66
2021/01/04 06:58:27;;;;;;;4.00;1.33;;;;;;;3.79;87.74;101944.94;10125142;28;20050;-65
2021/01/04 07:03:45;;;;;;;5.70;1.35;;;;;;;3.65;86.49;101952.53;10123004;28;20116;-66
2021/01/04 07:09:20;;;;;;;2.92;1.40;;;;;;;3.53;86.99;101960.69;10131910;28;20057;-66
2021/01/04 07:14:34;;;;;;;2.25;1.10;;;;;;;3.84;87.75;101950.44;10132233;28;20054;-65
2021/01/04 07:19:59;;;;;;;3.63;1.20;;;;;;;3.70;88.15;101949.09;10129599;28;20079;-65
2021/01/04 07:25:27;;;;;;;5.28;1.77;;;;;;;3.47;87.05;101967.03;10128513;28;20136;-64
2021/01/04 07:30:38;;;;;;;5.25;1.60;;;;;;;3.77;87.60;101966.00;10135611;28;20124;-65
2021/01/04 07:35:52;;;;;;;5.38;1.52;;;;;;;3.78;88.83;101978.47;10132688;28;20426;-65
2021/01/04 07:41:07;;;;;;;;;;;;;;;3.88;89.40;101973.25;10130703;28;20053;-64
2021/01/04 07:46:30;;;;;;;2.30;1.17;;;;;;;3.78;90.00;101978.47;10119160;28;19961;-64
2021/01/04 07:51:35;;;;;;;3.67;0.95;;;;;;;3.47;88.27;101977.84;10130104;28;20399;-65
2021/01/04 07:57:05;;;;;;;4.85;1.35;;;;;;;3.22;85.26;101977.31;10130861;28;20054;-65
2021/01/04 08:02:39;;;;;;;5.00;1.55;;;;;;;3.70;89.55;101979.69;10128860;28;20875;-65
2021/01/04 08:07:38;;;;;;;2.60;1.13;;;;;;;3.89;89.64;101974.88;10114102;28;20055;-66
2021/01/04 08:13:15;;;;;;;3.25;0.75;;;;;;;3.84;89.64;101982.91;10129810;28;20137;-66
2021/01/04 08:18:15;;;;;;;3.15;1.17;;;;;;;3.58;87.27;101977.00;10126653;28;20107;-65
2021/01/04 08:23:17;;;;;;;3.17;1.30;;;;;;;3.80;90.58;101981.75;10135985;28;20076;-64
2021/01/04 08:28:42;;;;;;;2.83;1.10;;;;;;;3.91;90.54;101978.19;10124390;28;20508;-64
2021/01/04 08:33:53;;;;;;;3.80;1.08;;;;;;;4.09;91.08;101981.75;10112595;28;20092;-66
2021/01/04 08:38:51;;;;;;;3.67;1.20;;;;;;;3.96;89.95;101986.38;10125243;28;20108;-64
2021/01/04 08:43:49;;;;;;;9.75;1.63;;;;;;;3.88;89.05;101984.09;10122864;28;20039;-63
2021/01/04 08:48:45;;;;;;;3.50;1.17;;;;;;;3.80;89.21;101982.56;10132696;28;20061;-65
2021/01/04 08:53:53;;;;;;;3.25;1.27;;;;;;;3.82;90.55;101985.03;10122168;28;20079;-65
2021/01/04 08:58:50;;;;;;;3.65;1.40;;;;;;;3.49;88.51;101983.84;10130041;28;20061;-66
2021/01/04 09:03:50;;;;;;;2.88;1.45;;;;;;;3.82;91.07;101985.03;10123661;28;20094;-66
2021/01/04 09:08:51;;;;;;;4.50;1.60;;;;;;;3.80;90.05;101992.56;10127999;28;20061;-65
2021/01/04 09:13:48;;;;;;;2.88;1.15;;;;;;;3.86;90.53;101991.63;10127803;28;20057;-66
2021/01/04 09:18:49;;;;;;;3.83;1.60;;;;;;;3.69;89.92;101988.03;10117181;28;20050;-66
2021/01/04 09:23:45;;;;;;;3.15;1.50;;;;;;;3.66;88.38;101996.63;10135282;28;20105;-64
2021/01/04 09:29:04;;;;;;;4.78;1.70;;;;;;;3.68;86.92;101994.50;10121724;28;20066;-64
2021/01/04 09:34:00;;;;;;;5.22;1.73;;;;;;;3.44;86.56;102004.56;10129633;28;20066;-64
2021/01/04 09:39:07;;;;;;;2.80;1.20;;;;;;;3.74;88.31;101999.78;10131634;28;20135;-65
2021/01/04 09:44:11;;;;;;;4.32;1.70;;;;;;;4.26;90.24;102001.53;10127955;28;20046;-66
2021/01/04 09:49:09;;;;;;;;;;;;;;;3.64;85.25;101996.03;10130812;28;20829;-66
2021/01/04 09:54:11;;;;;;;3.85;1.63;;;;;;;3.83;85.43;101997.53;10109278;28;19972;-65
2021/01/04 09:59:25;;;;;;;4.40;1.50;;;;;;;3.65;83.88;101997.69;10109013;28;20138;-65
2021/01/04 10:04:25;;;;;;;4.55;1.20;;;;;;;4.13;87.55;101988.31;10116155;28;20130;-67
2021/01/04 10:09:23;;;;;;;4.78;1.00;;;;;;;4.07;87.97;101989.28;10130599;28;20042;-67
2021/01/04 10:14:20;;;;;;;3.00;1.33;;;;;;;4.15;88.85;101994.31;10130008;28;20042;-65
2021/01/04 10:19:23;;;;;;;4.78;1.40;;;;;;;4.05;88.82;101999.53;10133634;28;20058;-65
2021/01/04 10:24:47;;;;;;;4.30;1.43;;;;;;;4.10;88.32;101986.09;10135877;28;20457;-66
2021/01/04 10:29:52;;;;;;;3.30;1.35;;;;;;;3.65;85.43;101984.19;10113553;28;20446;-65
2021/01/04 10:34:50;;;;;;;1.58;0.43;;;;;;;4.15;89.37;101983.47;10124722;28;20074;-66
2021/01/04 10:39:47;;;;;;;2.30;0.65;;;;;;;4.42;90.43;101970.94;10125151;28;20070;-64
2021/01/04 10:44:43;;;;;;;3.70;1.35;;;;;;;3.94;86.40;101961.44;10116790;28;20046;-66
2021/01/04 10:49:50;;;;;;;4.57;1.40;;;;;;;4.26;86.66;101955.50;10136407;28;20058;-65
2021/01/04 10:54:46;;;;;;;4.68;1.23;;;;;;;4.17;88.19;101943.44;10135766;28;20113;-66
2021/01/04 10:59:54;;;;;;;3.08;1.10;;;;;;;4.35;89.93;101940.50;10141520;28;20473;-60
2021/01/04 11:04:53;;;;;;;1.63;0.60;;;;;;;4.14;87.84;101943.94;10139780;28;20082;-64
2021/01/04 11:09:50;;;;;;;5.25;1.35;;;;;;;4.66;89.92;101940.97;10119805;28;20423;-65
2021/01/04 11:14:55;;;;;;;2.55;1.00;;;;;;;4.55;88.69;101937.31;10130768;28;20104;-65
2021/01/04 11:19:52;;;;;;;2.70;1.05;;;;;;;4.09;85.96;101935.75;10132655;28;20053;-64
2021/01/04 11:24:48;;;;;;;3.22;1.08;;;;;;;4.54;89.93;101924.00;10128917;28;20176;-65
2021/01/04 11:29:45;;;;;;;3.40;1.10;;;;;;;3.89;86.86;101920.78;10146630;28;20132;-66
2021/01/04 11:34:52;;;;;;;4.40;1.95;;;;;;;4.40;90.65;101913.50;10125300;28;20176;-66
2021/01/04 11:39:49;;;;;;;6.22;1.10;;;;;;;4.32;88.61;101919.34;10137081;28;20116;-65
2021/01/04 11:44:46;;;;;;;2.17;0.82;;;;;;;4.40;89.70;101910.78;10125080;28;20190;-64
2021/01/04 11:49:46;;;;;;;2.25;0.77;;;;;;;4.24;88.80;101916.22;10120817;28;20203;-67
2021/01/04 11:54:43;;;;;;;1.40;0.50;;;;;;;4.29;89.40;101908.97;10123239;28;20451;-65
2021/01/04 11:59:40;;;;;;;1.92;0.52;;;;;;;4.15;89.23;101902.25;10127316;28;20050;-64
2021/01/04 12:04:37;;;;;;;3.30;0.80;;;;;;;4.33;89.94;101904.72;10136740;28;20081;-65
2021/01/04 12:09:38;;;;;;;3.08;0.68;;;;;;;4.21;87.86;101904.00;10133308;28;20054;-65
2021/01/04 12:14:34;;;;;;;2.10;0.75;;;;;;;4.36;89.06;101904.25;10116912;28;20072;-67
2021/01/04 12:19:31;;;;;;;2.47;0.93;;;;;;;4.58;90.05;101889.94;10123708;28;20739;-65
2021/01/04 12:24:27;;;;;;;3.17;0.63;;;;;;;3.95;88.26;101890.03;10121966;28;20155;-64
2021/01/04 12:29:23;;;;;;;3.08;0.90;;;;;;;3.94;88.11;101892.97;10134737;28;20042;-65
2021/01/04 12:34:19;;;;;;;4.38;0.93;;;;;;;3.85;86.11;101887.16;10123814;28;20561;-64
2021/01/04 12:39:16;;;;;;;4.05;1.20;;;;;;;3.93;88.76;101888.66;10124217;28;20141;-66
2021/01/04 12:44:14;;;;;;;3.83;1.10;;;;;;;3.90;87.72;101883.69;10124123;28;20778;-65
2021/01/04 12:49:12;;;;;;;6.75;0.82;;;;;;;4.21;87.79;101876.94;10124173;28;20092;-66
2021/01/04 12:54:08;;;;;;;1.80;0.70;;;;;;;4.47;89.40;101866.47;10130292;28;20129;-65
2021/01/04 12:59:06;;;;;;;2.03;0.75;;;;;;;4.39;87.62;101862.31;10134050;28;20050;-65
2021/01/04 13:04:02;;;;;;;3.53;0.93;;;;;;;4.54;88.27;101859.81;10132250;28;20426;-66
2021/01/04 13:09:01;;;;;;;4.80;1.10;;;;;;;4.25;87.19;101859.13;10125357;28;20054;-66
2021/01/04 13:13:58;;;;;;;1.85;0.55;;;;;;;4.41;88.50;101858.28;10132282;28;20129;-66
2021/01/04 13:18:55;;;;;;;3.28;1.38;;;;;;;3.72;86.57;101855.00;10115812;28;20046;-65
2021/01/04 13:23:51;;;;;;;3.05;1.00;;;;;;;4.19;89.15;101860.91;10123678;28;20038;-64
2021/01/04 13:28:48;;;;;;;3.33;0.60;;;;;;;4.17;88.55;101851.41;10129417;28;20582;-64
2021/01/04 13:33:44;;;;;;;6.10;1.13;;;;;;;3.98;88.62;101865.19;10104865;28;20046;-66
2021/01/04 13:38:40;;;;;;;3.58;1.15;;;;;;;4.10;89.46;101862.41;10123861;28;20066;-65
2021/01/04 13:43:36;;;;;;;7.03;1.02;;;;;;;3.84;86.48;101863.88;10122463;28;20132;-66
2021/01/04 13:48:32;;;;;;;3.90;1.00;;;;;;;3.87;87.49;101860.66;10124943;28;20116;-65
2021/01/04 13:53:28;;;;;;;2.75;0.90;;;;;;;4.16;90.50;101861.41;10101205;28;20494;-65
2021/01/04 13:58:24;;;;;;;3.30;0.98;;;;;;;4.05;90.21;101864.22;10116503;28;20043;-65
2021/01/04 14:03:21;;;;;;;3.75;1.13;;;;;;;4.05;89.90;101862.31;10125387;28;20057;-66
2021/01/04 14:08:19;;;;;;;4.60;1.25;;;;;;;4.18;91.17;101869.31;10117715;28;20054;-66
2021/01/04 14:13:20;;;;;;;3.60;0.88;;;;;;;3.55;88.50;101860.38;10124801;28;20104;-65
2021/01/04 14:18:16;;;;;;;3.38;0.93;;;;;;;3.95;91.00;101860.28;10116876;28;20074;-65
2021/01/04 14:23:13;;;;;;;3.03;0.93;;;;;;;3.90;89.59;101852.09;10125970;28;20100;-64
2021/01/04 14:28:09;;;;;;;3.95;1.35;;;;;;;3.82;89.98;101855.16;10136209;28;20094;-66
2021/01/04 14:33:05;;;;;;;2.95;1.20;;;;;;;3.74;89.00;101864.53;10124287;28;20137;-66
2021/01/04 14:38:01;;;;;;;2.33;1.00;;;;;;;4.01;91.53;101853.06;10133251;28;20042;-66
2021/01/04 14:42:58;;;;;;;5.72;1.05;;;;;;;3.98;91.76;101853.56;10141096;28;20046;-66
2021/01/04 14:47:54;;;;;;;3.80;1.30;;;;;;;3.98;90.27;101853.56;10136984;28;20138;-66
2021/01/04 14:52:51;;;;;;;4.43;1.00;;;;;;;3.88;90.46;101859.63;10134555;28;20042;-65
2021/01/04 14:57:47;;;;;;;3.92;0.70;;;;;;;4.18;92.31;101858.47;10130303;28;20124;-65
2021/01/04 15:02:44;;;;;;;4.25;0.95;;;;;;;3.84;91.13;101858.47;10131067;28;20038;-66
2021/01/04 15:07:40;;;;;;;5.03;1.27;;;;;;;3.76;90.32;101861.56;10140452;28;20110;-65
2021/01/04 15:12:36;;;;;;;2.85;1.25;;;;;;;3.99;92.15;101856.03;10134580;28;20068;-65
2021/01/04 15:17:32;;;;;;;3.30;1.30;;;;;;;4.11;92.76;101857.84;10128718;28;20055;-64
2021/01/04 15:22:28;;;;;;;2.28;1.15;;;;;;;3.69;89.28;101841.94;10137804;28;20051;-65
2021/01/04 15:27:24;;;;;;;5.65;1.35;;;;;;;3.84;90.89;101854.94;10125544;28;20058;-65
2021/01/04 15:32:22;;;;;;;5.40;1.75;;;;;;;3.43;89.87;101849.59;10134545;28;20105;-64
2021/01/04 15:37:19;;;;;;;3.95;1.38;;;;;;;3.63;90.46;101841.06;10148263;28;20050;-64
2021/01/04 15:42:15;;;;;;;5.28;1.50;;;;;;;3.53;89.99;101841.69;10145900;28;20047;-64
2021/01/04 15:47:11;;;;;;;4.47;1.25;;;;;;;3.75;91.58;101836.38;10125515;28;20041;-64
2021/01/04 15:52:09;;;;;;;5.18;1.80;;;;;;;3.40;89.35;101852.81;10143775;28;20050;-64
2021/01/04 15:57:05;;;;;;;5.47;1.77;;;;;;;3.78;91.33;101854.84;10129752;28;20116;-64
2021/01/04 16:02:01;;;;;;;3.55;1.55;;;;;;;3.93;91.22;101856.19;10140812;28;20038;-64
2021/01/04 16:06:57;;;;;;;4.22;1.48;;;;;;;3.87;91.38;101852.56;10134167;28;20058;-64
2021/01/04 16:11:55;;;;;;;3.33;1.40;;;;;;;3.88;91.81;101848.78;10139208;28;20058;-64
2021/01/04 16:16:54;;;;;;;4.43;1.40;;;;;;;3.68;90.66;101864.66;10132132;28;20059;-64
2021/01/04 16:21:51;;;;;;;4.13;1.83;;;;;;;3.71;89.69;101853.34;10118373;28;20478;-65
2021/01/04 16:26:48;;;;;;;4.15;1.70;;;;;;;3.76;90.92;101856.13;10134169;28;20625;-64
2021/01/04 16:31:56;;;;;;;4.18;1.80;;;;;;;3.65;89.58;101851.63;10134196;28;20557;-65
2021/01/04 16:36:55;;;;;;;4.32;1.58;;;;;;;3.67;89.81;101852.22;10135266;28;20069;-64
2021/01/04 16:41:56;;;;;;;4.43;1.80;;;;;;;3.94;91.33;101858.63;10127556;28;20054;-64
2021/01/04 16:46:53;;;;;;;3.63;1.52;;;;;;;4.10;91.75;101845.34;10128072;28;22400;-64
2021/01/04 16:51:49;;;;;;;2.58;1.20;;;;;;;3.93;90.93;101851.56;10129982;28;20105;-64
2021/01/04 16:56:50;;;;;;;5.63;1.35;;;;;;;3.99;91.65;101845.19;10134214;28;20077;-64
2021/01/04 17:01:47;;;;;;;4.68;1.83;;;;;;;3.89;90.85;101850.41;10126393;28;20580;-64
2021/01/04 17:06:43;;;;;;;3.75;1.50;;;;;;;3.76;91.06;101848.03;10127274;28;20046;-64
2021/01/04 17:11:41;;;;;;;4.30;1.80;;;;;;;3.52;89.96;101850.84;10131797;28;20565;-65
2021/01/04 17:16:38;;;;;;;4.85;2.05;;;;;;;3.75;90.97;101849.91;10116539;28;20058;-64
2021/01/04 17:21:35;;;;;;;4.55;2.20;;;;;;;3.38;89.96;101854.94;10136946;28;20050;-64
2021/01/04 17:26:37;;;;;;;3.75;1.58;;;;;;;3.70;91.69;101851.72;10119513;28;20058;-64
2021/01/04 17:31:33;;;;;;;5.00;2.45;;;;;;;3.51;91.08;101865.47;10117229;28;20046;-65
2021/01/04 17:36:30;;;;;;;6.95;2.30;;;;;;;3.44;89.78;101867.50;10127386;28;20123;-65
2021/01/04 17:41:31;;;;;;;4.15;2.55;;;;;;;3.54;91.30;101859.56;10133480;28;20042;-64
2021/01/04 17:46:35;;;;;;;5.82;2.45;;;;;;;3.21;88.75;101859.47;10129812;28;20054;-64
2021/01/04 17:51:32;;;;;;;5.10;2.10;;;;;;;3.57;91.74;101864.50;10127656;28;20057;-65
2021/01/04 17:56:28;;;;;;;4.97;1.85;;;;;;;3.41;90.87;101867.94;10128589;28;20510;-64
2021/01/04 18:01:27;;;;;;;5.18;2.58;;;;;;;3.43;89.80;101863.13;10122980;28;20054;-65
2021/01/04 18:06:26;;;;;;;7.10;2.40;;;;;;;3.61;91.35;101874.81;10116221;28;20055;-65
2021/01/04 18:11:31;;;;;;;6.25;2.35;;;;;;;3.33;89.61;101862.94;10137182;28;20212;-65
2021/01/04 18:16:27;;;;;;;4.15;1.65;;;;;;;3.52;90.99;101867.09;10125684;28;20145;-63
2021/01/04 18:21:26;;;;;;;7.03;2.63;;;;;;;3.45;90.23;101866.41;10115916;28;20039;-64
2021/01/04 18:26:25;;;;;;;4.30;2.20;;;;;;;3.46;91.41;101868.06;10118045;28;20089;-64
2021/01/04 18:31:30;;;;;;;4.07;1.88;;;;;;;3.45;90.67;101866.41;10130219;28;20403;-65
2021/01/04 18:36:28;;;;;;;4.25;2.20;;;;;;;3.61;92.06;101864.00;10125764;28;20271;-65
2021/01/04 18:41:27;;;;;;;5.57;2.63;;;;;;;3.53;91.98;101871.44;10140018;28;20466;-65
2021/01/04 18:46:26;;;;;;;7.85;2.85;;;;;;;3.40;90.52;101869.03;10128322;28;20055;-64
2021/01/04 18:51:28;;;;;;;5.30;2.78;;;;;;;3.26;89.13;101873.09;10129668;28;20050;-64
2021/01/04 18:56:37;;;;;;;8.23;2.67;;;;;;;3.26;89.56;101878.50;10113475;28;20128;-64
2021/01/04 19:01:33;;;;;;;4.97;2.50;;;;;;;3.23;90.97;101873.56;10121193;28;20050;-66
2021/01/04 19:06:33;;;;;;;5.18;2.50;;;;;;;3.06;90.33;101879.69;10149931;28;20050;-65
2021/01/04 19:11:32;;;;;;;6.45;3.17;;;;;;;2.66;87.96;101883.19;10128294;28;20572;-65
2021/01/04 19:16:29;;;;;;;5.45;2.70;;;;;;;2.95;89.82;101884.09;10127888;28;20528;-65
2021/01/04 19:21:31;;;;;;;4.68;1.40;;;;;;;3.22;90.32;101882.72;10129976;28;20054;-65
2021/01/04 19:26:31;;;;;;;4.03;1.67;;;;;;;3.29;90.75;101889.63;10133416;28;20069;-65
2021/01/04 19:31:37;;;;;;;3.95;2.10;;;;;;;3.23;91.13;101889.78;10130959;28;20470;-65
2021/01/04 19:36:33;;;;;;;4.32;2.25;;;;;;;3.19;90.62;101894.03;10126340;28;20049;-62
2021/01/04 19:41:30;;;;;;;4.85;2.17;;;;;;;3.13;89.24;101890.38;10132691;28;20057;-64
2021/01/04 19:46:26;;;;;;;4.03;2.15;;;;;;;3.10;89.69;101885.47;10136389;28;20118;-65
2021/01/04 19:51:22;;;;;;;5.07;3.00;;;;;;;2.61;86.65;101887.66;10129258;28;20046;-65
2021/01/04 19:56:20;;;;;;;5.65;2.15;;;;;;;3.15;90.27;101883.69;10136033;28;20050;-65
2021/01/04 20:01:24;;;;;;;6.18;3.17;;;;;;;3.00;88.97;101896.88;10137842;28;20054;-65
2021/01/04 20:06:23;;;;;;;7.63;2.83;;;;;;;2.93;88.91;101890.78;10126745;28;20450;-65
2021/01/04 20:11:19;;;;;;;6.13;3.10;;;;;;;2.94;86.99;101887.03;10133763;28;20047;-65
2021/01/04 20:16:17;;;;;;;5.35;3.05;;;;;;;2.90;86.45;101885.84;10125015;28;20051;-65
2021/01/04 20:21:23;;;;;;;5.85;3.25;;;;;;;3.03;86.84;101888.28;10131392;28;20054;-65
2021/01/04 20:26:25;;;;;;;4.95;2.50;;;;;;;2.95;85.24;101883.28;10121825;28;20057;-65
2021/01/04 20:31:28;;;;;;;7.30;2.35;;;;;;;2.95;84.94;101894.09;10137431;28;20058;-65
2021/01/04 20:36:24;;;;;;;4.40;2.10;;;;;;;2.93;84.25;101896.19;10111426;28;20046;-65
2021/01/04 20:41:21;;;;;;;5.53;2.60;;;;;;;3.13;85.64;101893.94;10116787;28;20058;-65
2021/01/04 20:46:20;;;;;;;5.03;2.58;;;;;;;3.12;83.59;101881.47;10128098;28;20054;-65
2021/01/04 20:51:18;;;;;;;6.07;2.58;;;;;;;3.08;83.82;101888.41;10113167;28;20058;-65
2021/01/04 20:56:14;;;;;;;8.00;3.08;;;;;;;3.08;83.50;101888.41;10126466;28;20402;-64
2021/01/04 21:01:14;;;;;;;7.28;3.45;;;;;;;3.10;83.71;101886.28;10139961;28;20057;-64
2021/01/04 21:06:10;;;;;;;6.22;2.97;;;;;;;3.23;83.50;101890.59;10129604;28;20042;-64
2021/01/04 21:11:06;;;;;;;6.15;3.40;;;;;;;3.14;82.86;101887.44;10127523;28;20426;-68
2021/01/04 21:16:06;;;;;;;5.97;3.58;;;;;;;3.14;82.75;101892.84;10139340;28;20042;-68
2021/01/04 21:21:02;;;;;;;8.23;3.25;;;;;;;3.23;84.05;101876.28;10132648;28;20042;-69
2021/01/04 21:25:58;;;;;;;6.93;3.25;;;;;;;3.31;84.47;101881.28;10129936;28;20046;-69
2021/01/04 21:30:54;;;;;;;6.97;3.13;;;;;;;3.35;84.19;101890.56;10136350;28;20069;-69
2021/01/04 21:35:50;;;;;;;7.93;4.15;;;;;;;3.36;83.83;101890.34;10119830;28;20068;-67
2021/01/04 21:40:48;;;;;;;7.43;3.60;;;;;;;3.36;83.22;101893.03;10131897;28;20058;-67
2021/01/04 21:45:46;;;;;;;10.27;3.67;;;;;;;3.40;83.81;101890.66;10114545;28;20051;-67
2021/01/04 21:50:44;;;;;;;7.88;3.55;;;;;;;3.52;84.76;101882.50;10120507;28;20050;-67
2021/01/04 21:55:40;;;;;;;7.13;3.47;;;;;;;3.53;84.11;101884.97;10125719;28;20051;-69
2021/01/04 22:00:36;;;;;;;5.60;2.78;;;;;;;3.59;85.79;101881.28;10138010;28;20050;-68
2021/01/04 22:05:33;;;;;;;5.72;2.10;;;;;;;3.66;88.29;101889.25;10137843;28;20116;-68
2021/01/04 22:10:29;;;;;;;8.68;2.35;;;;;;;3.59;86.69;101885.88;10128885;28;20054;-67
2021/01/04 22:15:25;;;;;;;7.00;2.47;;;;;;;3.70;87.92;101884.19;10140849;28;20055;-66
2021/01/04 22:20:21;;;;;;;6.75;2.65;;;;;;;3.59;86.32;101875.88;10142511;28;20549;-67
2021/01/04 22:25:17;;;;;;;5.60;3.22;;;;;;;3.55;87.28;101888.25;10133992;28;20113;-67
2021/01/04 22:30:13;;;;;;;6.45;3.10;;;;;;;3.44;86.92;101885.59;10143629;28;20061;-67
2021/01/04 22:35:09;;;;;;;5.68;2.58;;;;;;;3.56;87.70;101884.47;10138487;28;20609;-66
2021/01/04 22:40:11;;;;;;;7.53;3.03;;;;;;;3.47;88.06;101885.94;10140690;28;20054;-67
2021/01/04 22:45:09;;;;;;;7.28;3.00;;;;;;;3.55;87.15;101882.84;10144396;28;20128;-67
2021/01/04 22:50:07;;;;;;;7.72;3.22;;;;;;;3.48;85.80;101876.78;10143349;28;20536;-67
2021/01/04 22:55:03;;;;;;;10.27;4.20;;;;;;;3.58;87.58;101876.13;10153160;28;20494;-67
2021/01/04 22:59:59;;;;;;;7.20;2.47;;;;;;;3.56;89.32;101884.47;10139733;28;20046;-67
2021/01/04 23:04:56;;;;;;;5.43;2.45;;;;;;;3.66;89.18;101878.44;10149392;28;20118;-66
2021/01/04 23:09:52;;;;;;;5.45;2.47;;;;;;;3.47;87.19;101863.47;10138591;28;20046;-68
2021/01/04 23:14:48;;;;;;;6.70;2.35;;;;;;;3.64;88.65;101868.91;10155575;28;20128;-67
2021/01/04 23:19:44;;;;;;;6.20;2.40;;;;;;;3.59;87.01;101866.94;10144143;28;20058;-68
2021/01/04 23:24:40;;;;;;;6.60;2.83;;;;;;;3.61;87.65;101861.31;10145117;28;20465;-67
2021/01/04 23:29:36;;;;;;;4.43;2.17;;;;;;;3.74;88.91;101863.72;10152688;28;20051;-65
2021/01/04 23:34:32;;;;;;;6.75;2.13;;;;;;;3.68;88.03;101864.66;10141917;28;20396;-68